createdAt,value
2024-04-08T01:08:10.520Z,19.28
2024-04-08T01:10:37.689Z,19.35
2024-04-08T01:13:07.697Z,19.31
2024-04-08T01:15:36.730Z,18.97
2024-04-08T01:18:06.634Z,18.46
2024-04-08T01:20:34.641Z,17.90
2024-04-08T01:23:05.782Z,17.94
2024-04-08T01:25:36.367Z,18.15
2024-04-08T01:28:06.605Z,18.25
2024-04-08T01:30:34.325Z,17.35
2024-04-08T01:33:04.386Z,17.22
2024-04-08T01:35:33.082Z,17.68
2024-04-08T01:38:03.486Z,17.87
2024-04-08T01:40:33.477Z,17.83
2024-04-08T01:43:05.707Z,17.67
2024-04-08T01:45:33.196Z,17.94
2024-04-08T01:48:05.533Z,18.14
2024-04-08T01:50:33.420Z,18.30
2024-04-08T01:53:03.137Z,18.41
2024-04-08T01:55:33.527Z,18.58
2024-04-08T01:58:06.553Z,18.65
2024-04-08T02:00:39.141Z,18.77
2024-04-08T02:03:09.244Z,18.80
2024-04-08T02:05:36.300Z,18.72
2024-04-08T02:08:08.564Z,18.67
2024-04-08T02:10:36.100Z,18.71
2024-04-08T02:13:09.452Z,18.63
2024-04-08T02:15:36.779Z,18.51
2024-04-08T02:18:09.869Z,18.42
2024-04-08T02:20:43.641Z,18.11
2024-04-08T02:23:13.184Z,18.19
2024-04-08T02:25:41.268Z,18.28
2024-04-08T02:28:13.816Z,18.34
2024-04-08T02:30:52.919Z,18.23
2024-04-08T02:33:23.166Z,18.08
2024-04-08T02:35:50.434Z,18.08
2024-04-08T02:38:22.717Z,18.14
2024-04-08T02:40:50.249Z,18.27
2024-04-08T02:43:22.900Z,18.33
2024-04-08T02:45:51.567Z,18.48
2024-04-08T02:48:22.078Z,18.31
2024-04-08T02:50:49.739Z,18.25
2024-04-08T02:53:19.333Z,17.83
2024-04-08T02:55:46.484Z,17.99
2024-04-08T02:58:18.558Z,17.87
2024-04-08T03:00:48.311Z,17.20
2024-04-08T03:03:17.948Z,17.12
2024-04-08T03:05:52.523Z,16.84
2024-04-08T03:08:22.276Z,16.69
2024-04-08T03:10:52.685Z,16.55
2024-04-08T03:13:24.635Z,16.35
2024-04-08T03:15:57.723Z,16.27
2024-04-08T03:18:28.121Z,16.24
2024-04-08T03:20:56.103Z,16.11
2024-04-08T03:23:26.266Z,16.07
2024-04-08T03:25:58.625Z,16.03
2024-04-08T03:28:29.200Z,15.92
2024-04-08T03:30:59.322Z,16.06
2024-04-08T03:33:29.527Z,16.38
2024-04-08T03:35:57.414Z,16.77
2024-04-08T03:38:27.284Z,17.00
2024-04-08T03:41:01.423Z,17.22
2024-04-08T03:43:32.305Z,17.34
2024-04-08T03:46:04.992Z,17.47
2024-04-08T03:48:33.384Z,17.50
2024-04-08T03:51:10.847Z,17.54
2024-04-08T03:53:39.072Z,17.65
2024-04-08T03:56:11.060Z,17.77
2024-04-08T03:58:39.352Z,17.61
2024-04-08T04:01:12.775Z,17.64
2024-04-08T04:03:39.838Z,17.62
2024-04-08T04:06:09.874Z,17.67
2024-04-08T04:08:37.121Z,17.58
2024-04-08T04:11:08.533Z,17.54
2024-04-08T04:13:35.697Z,17.49
2024-04-08T04:16:06.890Z,17.48
2024-04-08T04:18:39.165Z,17.47
2024-04-08T04:21:06.138Z,17.43
2024-04-08T04:23:35.986Z,17.21
2024-04-08T04:26:03.481Z,17.25
2024-04-08T04:28:33.449Z,17.30
2024-04-08T04:31:04.024Z,17.28
2024-04-08T04:33:36.494Z,17.21
2024-04-08T04:36:06.696Z,17.12
2024-04-08T04:38:37.675Z,17.18
2024-04-08T04:41:06.471Z,17.11
2024-04-08T04:43:37.600Z,17.19
2024-04-08T04:46:05.036Z,17.24
2024-04-08T04:48:37.491Z,17.18
2024-04-08T04:51:09.719Z,17.13
2024-04-08T04:53:39.751Z,17.13
2024-04-08T04:56:07.582Z,16.97
2024-04-08T04:58:38.223Z,17.03
2024-04-08T05:01:06.298Z,16.98
2024-04-08T05:03:36.133Z,16.99
2024-04-08T05:06:03.712Z,16.74
2024-04-08T05:08:36.370Z,16.71
2024-04-08T05:11:09.132Z,16.78
2024-04-08T05:13:37.425Z,16.87
2024-04-08T05:16:16.675Z,16.78
2024-04-08T05:18:44.353Z,16.85
2024-04-08T05:21:14.953Z,17.03
2024-04-08T05:23:48.520Z,17.09
2024-04-08T05:26:19.310Z,17.15
2024-04-08T05:28:47.917Z,17.30
2024-04-08T05:31:17.980Z,17.46
2024-04-08T05:33:45.299Z,17.51
2024-04-08T05:36:15.497Z,17.60
2024-04-08T05:38:45.645Z,17.62
2024-04-08T05:41:16.610Z,17.33
2024-04-08T05:43:44.092Z,17.20
2024-04-08T05:46:13.920Z,17.39
2024-04-08T05:48:41.556Z,17.64
2024-04-08T05:51:12.967Z,17.75
2024-04-08T05:53:40.142Z,17.94
2024-04-08T05:56:13.035Z,18.18
2024-04-08T05:58:40.444Z,18.13
2024-04-08T06:01:10.614Z,18.36
2024-04-08T06:03:37.879Z,18.60
2024-04-08T06:06:09.071Z,18.79
2024-04-08T06:08:36.542Z,19.14
2024-04-08T06:11:06.581Z,19.33
2024-04-08T06:13:36.875Z,19.58
2024-04-08T06:16:07.030Z,19.89
2024-04-08T06:18:34.374Z,19.99
2024-04-08T06:21:04.776Z,20.07
2024-04-08T06:23:36.527Z,20.38
2024-04-08T06:26:14.461Z,20.75
2024-04-08T06:28:44.232Z,20.96
2024-04-08T06:31:15.945Z,21.37
2024-04-08T06:33:43.333Z,21.90
2024-04-08T06:36:16.118Z,22.19
2024-04-08T06:38:43.098Z,22.50
2024-04-08T06:41:13.318Z,22.92
2024-04-08T06:43:41.097Z,23.13
2024-04-08T06:46:13.526Z,23.27
2024-04-08T06:48:40.948Z,23.22
2024-04-08T06:51:10.745Z,23.56
2024-04-08T06:53:38.489Z,23.95
2024-04-08T06:56:09.975Z,24.14
2024-04-08T06:58:37.517Z,24.18
2024-04-08T07:01:07.807Z,24.48
2024-04-08T07:03:37.822Z,24.81
2024-04-08T07:06:08.602Z,25.00
2024-04-08T07:08:36.464Z,25.12
2024-04-08T07:11:08.905Z,25.35
2024-04-08T07:13:38.560Z,25.84
2024-04-08T07:16:09.086Z,25.88
2024-04-08T07:18:39.672Z,26.09
2024-04-08T07:21:13.097Z,26.17
2024-04-08T07:23:43.229Z,25.80
2024-04-08T07:26:13.732Z,25.67
2024-04-08T07:28:45.460Z,25.33
2024-04-08T07:31:19.196Z,25.63
2024-04-08T07:33:51.897Z,25.73
2024-04-08T07:36:21.799Z,25.77
2024-04-08T07:39:00.981Z,25.78
2024-04-08T07:41:32.652Z,26.01
2024-04-08T07:43:59.849Z,26.44
2024-04-08T07:46:31.987Z,26.96
2024-04-08T07:49:02.152Z,26.97
2024-04-08T07:51:32.430Z,27.20
2024-04-08T07:53:59.811Z,27.54
2024-04-08T07:56:29.732Z,27.40
2024-04-08T07:58:57.059Z,27.21
2024-04-08T08:01:26.908Z,27.11
2024-04-08T08:03:54.121Z,27.27
2024-04-08T08:06:26.715Z,28.02
2024-04-08T08:08:57.094Z,28.43
2024-04-08T08:11:28.713Z,28.46
2024-04-08T08:13:59.429Z,28.65
2024-04-08T08:16:31.359Z,28.53
2024-04-08T08:19:01.366Z,28.12
2024-04-08T08:21:34.241Z,27.73
2024-04-08T08:24:04.083Z,27.20
2024-04-08T08:26:34.090Z,27.16
2024-04-08T08:29:03.845Z,27.21
2024-04-08T08:31:33.888Z,27.19
2024-04-08T08:34:04.335Z,27.70
2024-04-08T08:36:34.292Z,27.57
2024-04-08T08:39:06.062Z,27.91
2024-04-08T08:41:35.462Z,28.12
2024-04-08T08:44:06.226Z,27.78
2024-04-08T08:46:34.566Z,27.56
2024-04-08T08:49:08.019Z,28.17
2024-04-08T08:51:38.053Z,28.50
2024-04-08T08:54:07.921Z,28.54
2024-04-08T08:56:35.140Z,29.02
2024-04-08T08:59:08.542Z,29.29
2024-04-08T09:01:36.109Z,29.55
2024-04-08T09:04:10.749Z,29.87
2024-04-08T09:06:53.074Z,29.68
2024-04-08T09:09:22.676Z,29.47
2024-04-08T09:11:50.140Z,29.03
2024-04-08T09:14:20.678Z,29.11
2024-04-08T09:16:51.430Z,29.43
2024-04-08T09:19:21.305Z,29.62
2024-04-08T09:21:52.030Z,29.81
2024-04-08T09:24:21.644Z,30.15
2024-04-08T09:26:48.804Z,29.96
2024-04-08T09:29:18.460Z,29.84
2024-04-08T09:31:46.088Z,29.66
2024-04-08T09:34:15.661Z,29.18
2024-04-08T09:36:43.734Z,28.35
2024-04-08T09:39:16.670Z,28.82
2024-04-08T09:41:45.732Z,29.31
2024-04-08T09:44:21.372Z,29.96
2024-04-08T09:46:49.884Z,30.07
2024-04-08T09:49:24.634Z,30.12
2024-04-08T09:51:53.849Z,30.36
2024-04-08T09:54:26.467Z,30.98
2024-04-08T09:56:59.375Z,31.77
2024-04-08T09:59:30.435Z,32.21
2024-04-08T10:02:00.975Z,32.71
2024-04-08T10:04:39.852Z,33.13
2024-04-08T10:07:07.806Z,32.65
2024-04-08T10:09:43.953Z,33.92
2024-04-08T10:12:11.081Z,34.55
2024-04-08T10:14:40.893Z,34.40
2024-04-08T10:17:10.143Z,33.82
2024-04-08T10:19:39.804Z,33.27
2024-04-08T10:22:09.933Z,33.74
2024-04-08T10:24:43.208Z,33.68
2024-04-08T10:27:12.707Z,32.53
2024-04-08T10:29:44.514Z,32.52
2024-04-08T10:32:13.566Z,32.99
2024-04-08T10:34:43.345Z,33.20
2024-04-08T10:37:10.274Z,33.44
2024-04-08T10:39:42.648Z,32.11
2024-04-08T10:42:14.607Z,30.91
2024-04-08T10:44:44.556Z,30.93
2024-04-08T10:47:11.801Z,31.04
2024-04-08T10:49:44.327Z,31.27
2024-04-08T10:52:11.992Z,31.67
2024-04-08T10:54:45.350Z,32.06
2024-04-08T10:57:13.362Z,34.24
2024-04-08T10:59:43.222Z,36.91
2024-04-08T11:02:18.263Z,38.71
2024-04-08T11:04:45.873Z,39.14
2024-04-08T11:07:15.514Z,39.83
2024-04-08T11:09:45.657Z,39.83
2024-04-08T11:12:17.064Z,38.68
2024-04-08T11:14:44.555Z,39.21
2024-04-08T11:17:14.510Z,39.38
2024-04-08T11:19:44.740Z,40.28
2024-04-08T11:22:15.531Z,40.80
2024-04-08T11:24:45.163Z,39.47
2024-04-08T11:27:14.968Z,38.34
2024-04-08T11:29:43.624Z,37.72
2024-04-08T11:32:14.832Z,38.62
2024-04-08T11:34:42.399Z,38.23
2024-04-08T11:37:13.289Z,38.17
2024-04-08T11:39:42.716Z,39.13
2024-04-08T11:42:17.463Z,40.92
2024-04-08T11:44:45.610Z,39.70
2024-04-08T11:47:19.557Z,38.53
2024-04-08T11:49:47.320Z,38.02
2024-04-08T11:52:19.524Z,38.39
2024-04-08T11:54:54.745Z,39.30
2024-04-08T11:57:33.341Z,37.86
2024-04-08T12:00:00.356Z,38.01
2024-04-08T12:02:30.514Z,37.98
2024-04-08T12:04:57.876Z,36.57
2024-04-08T12:07:27.367Z,33.98
2024-04-08T12:09:54.660Z,32.76
2024-04-08T12:12:24.713Z,33.16
2024-04-08T12:14:54.550Z,34.03
2024-04-08T12:17:24.032Z,34.60
2024-04-08T12:19:51.644Z,36.12
2024-04-08T12:22:21.327Z,37.80
2024-04-08T12:24:48.286Z,38.46
2024-04-08T12:27:18.427Z,37.16
2024-04-08T12:29:46.681Z,36.20
2024-04-08T12:32:18.885Z,35.55
2024-04-08T12:34:46.034Z,35.89
2024-04-08T12:37:18.782Z,36.31
2024-04-08T12:39:45.712Z,38.32
2024-04-08T12:42:15.626Z,40.11
2024-04-08T12:44:43.938Z,40.88
2024-04-08T12:47:13.934Z,41.63
2024-04-08T12:49:44.189Z,42.39
2024-04-08T12:52:14.464Z,42.58
2024-04-08T12:54:42.057Z,41.48
2024-04-08T12:57:12.374Z,40.83
2024-04-08T12:59:39.770Z,39.52
2024-04-08T13:02:09.795Z,39.24
2024-04-08T13:04:37.077Z,39.72
2024-04-08T13:07:09.945Z,40.62
2024-04-08T13:09:37.457Z,41.81
2024-04-08T13:12:08.113Z,41.75
2024-04-08T13:14:35.358Z,42.00
2024-04-08T13:17:05.450Z,42.34
2024-04-08T13:19:34.943Z,41.58
2024-04-08T13:22:04.719Z,40.56
2024-04-08T13:24:36.597Z,41.91
2024-04-08T13:27:06.670Z,42.44
2024-04-08T13:29:35.240Z,43.21
2024-04-08T13:32:05.299Z,42.15
2024-04-08T13:34:32.929Z,40.15
2024-04-08T13:37:03.171Z,39.40
2024-04-08T13:39:30.367Z,38.74
2024-04-08T13:42:04.628Z,40.15
2024-04-08T13:44:32.144Z,42.05
2024-04-08T13:47:01.762Z,42.63
2024-04-08T13:49:29.197Z,41.45
2024-04-08T13:52:00.764Z,39.79
2024-04-08T13:54:30.204Z,40.04
2024-04-08T13:57:03.482Z,39.68
2024-04-08T13:59:31.059Z,38.58
2024-04-08T14:02:01.297Z,39.12
2024-04-08T14:04:28.719Z,40.77
2024-04-08T14:06:58.628Z,40.88
2024-04-08T14:09:27.129Z,39.09
2024-04-08T14:11:56.971Z,38.77
2024-04-08T14:14:29.079Z,40.27
2024-04-08T14:17:00.500Z,42.59
2024-04-08T14:19:27.937Z,42.06
2024-04-08T14:21:57.689Z,41.99
2024-04-08T14:24:24.867Z,40.62
2024-04-08T14:26:54.744Z,36.70
2024-04-08T14:29:26.871Z,35.06
2024-04-08T14:32:00.912Z,34.10
2024-04-08T14:34:29.216Z,33.03
2024-04-08T14:36:58.784Z,32.12
2024-04-08T14:39:36.104Z,32.45
2024-04-08T14:42:08.422Z,35.34
2024-04-08T14:44:43.280Z,38.85
2024-04-08T14:47:20.782Z,40.18
2024-04-08T14:49:48.694Z,40.76
2024-04-08T14:52:23.866Z,41.12
2024-04-08T14:54:57.358Z,39.17
2024-04-08T14:57:27.292Z,37.78
2024-04-08T14:59:54.470Z,36.36
2024-04-08T15:02:27.523Z,35.91
2024-04-08T15:04:55.035Z,34.55
2024-04-08T15:07:28.353Z,34.34
2024-04-08T15:09:56.746Z,34.44
2024-04-08T15:12:26.930Z,34.05
2024-04-08T15:14:54.016Z,34.93
2024-04-08T15:17:26.444Z,37.35
2024-04-08T15:19:53.729Z,38.67
2024-04-08T15:22:23.381Z,40.00
2024-04-08T15:24:51.739Z,39.50
2024-04-08T15:27:21.691Z,39.70
2024-04-08T15:29:52.062Z,39.07
2024-04-08T15:32:27.002Z,39.03
2024-04-08T15:34:54.267Z,40.51
2024-04-08T15:37:24.515Z,40.02
2024-04-08T15:39:52.060Z,39.57
2024-04-08T15:42:21.851Z,39.77
2024-04-08T15:44:49.781Z,40.23
2024-04-08T15:47:20.424Z,40.30
2024-04-08T15:49:50.731Z,38.34
2024-04-08T15:52:20.647Z,36.90
2024-04-08T15:54:50.536Z,36.36
2024-04-08T15:57:20.412Z,36.95
2024-04-08T15:59:48.853Z,37.81
2024-04-08T16:02:19.624Z,38.01
2024-04-08T16:04:53.258Z,38.01
2024-04-08T16:07:23.384Z,38.12
2024-04-08T16:09:51.048Z,36.81
2024-04-08T16:12:21.064Z,36.64
2024-04-08T16:14:48.610Z,36.79
2024-04-08T16:17:18.846Z,36.58
2024-04-08T16:19:51.978Z,35.85
2024-04-08T16:22:26.012Z,35.92
2024-04-08T16:24:55.424Z,35.76
2024-04-08T16:27:26.280Z,34.96
2024-04-08T16:29:53.742Z,33.81
2024-04-08T16:32:23.805Z,32.78
2024-04-08T16:34:54.390Z,31.67
2024-04-08T16:37:24.727Z,31.24
2024-04-08T16:39:52.875Z,31.15
2024-04-08T16:42:24.282Z,31.18
2024-04-08T16:44:51.686Z,30.85
2024-04-08T16:47:21.462Z,30.50
2024-04-08T16:49:48.884Z,30.40
2024-04-08T16:52:25.007Z,30.50
2024-04-08T16:54:52.454Z,30.59
2024-04-08T16:57:26.749Z,30.59
2024-04-08T16:59:54.279Z,30.60
2024-04-08T17:02:25.429Z,30.58
2024-04-08T17:04:53.902Z,30.49
2024-04-08T17:07:29.042Z,30.33
2024-04-08T17:09:56.640Z,29.97
2024-04-08T17:12:29.785Z,29.71
2024-04-08T17:14:57.698Z,29.65
2024-04-08T17:17:27.960Z,29.58
2024-04-08T17:19:55.766Z,29.55
2024-04-08T17:22:28.607Z,29.51
2024-04-08T17:24:58.685Z,29.45
2024-04-08T17:27:30.956Z,29.30
2024-04-08T17:29:58.366Z,29.19
2024-04-08T17:32:30.098Z,28.94
2024-04-08T17:34:58.402Z,28.69
2024-04-08T17:37:34.373Z,28.39
2024-04-08T17:40:06.057Z,28.11
2024-04-08T17:42:43.596Z,27.81
2024-04-08T17:45:13.815Z,27.54
2024-04-08T17:47:44.057Z,27.25
2024-04-08T17:50:12.800Z,26.80
2024-04-08T17:52:55.160Z,26.38
2024-04-08T17:55:24.434Z,26.06
2024-04-08T17:57:54.939Z,25.70
2024-04-08T18:00:24.350Z,25.66
2024-04-08T18:02:54.375Z,25.63
2024-04-08T18:05:21.945Z,25.61
2024-04-08T18:07:54.954Z,25.09
2024-04-08T18:10:22.956Z,24.75
2024-04-08T18:12:53.031Z,24.67
2024-04-08T18:15:20.552Z,24.66
2024-04-08T18:17:51.529Z,24.57
2024-04-08T18:20:19.408Z,24.61
2024-04-08T18:22:50.046Z,24.46
2024-04-08T18:25:20.433Z,24.28
2024-04-08T18:27:54.447Z,24.27
2024-04-08T18:30:23.204Z,24.08
2024-04-08T18:32:58.056Z,23.99
2024-04-08T18:35:27.582Z,23.93
2024-04-08T18:37:58.141Z,23.89
2024-04-08T18:40:30.562Z,23.74
2024-04-08T18:43:01.250Z,23.70
2024-04-08T18:45:28.977Z,23.66
2024-04-08T18:48:00.013Z,23.54
2024-04-08T18:50:29.171Z,23.47
2024-04-08T18:52:59.936Z,23.35
2024-04-08T18:55:30.025Z,23.16
2024-04-08T18:58:01.285Z,22.81
2024-04-08T19:00:28.567Z,22.73
2024-04-08T19:02:58.622Z,22.63
2024-04-08T19:05:26.031Z,22.46
2024-04-08T19:07:56.218Z,22.46
2024-04-08T19:10:23.930Z,22.54
2024-04-08T19:12:56.856Z,22.36
2024-04-08T19:15:25.087Z,22.03
2024-04-08T19:17:57.491Z,22.11
2024-04-08T19:20:25.031Z,22.22
2024-04-08T19:22:57.626Z,22.36
2024-04-08T19:25:27.420Z,22.42
2024-04-08T19:28:00.020Z,22.41
2024-04-08T19:30:28.016Z,22.47
2024-04-08T19:33:00.025Z,22.24
2024-04-08T19:35:27.384Z,22.26
2024-04-08T19:37:57.118Z,22.22
2024-04-08T19:40:26.018Z,22.11
2024-04-08T19:43:08.327Z,21.79
2024-04-08T19:45:39.026Z,21.40
2024-04-08T19:48:13.342Z,21.55
2024-04-08T19:50:41.565Z,21.80
2024-04-08T19:53:11.881Z,22.22
2024-04-08T19:55:39.162Z,22.61
2024-04-08T19:58:11.760Z,22.66
2024-04-08T20:00:39.098Z,22.81
2024-04-08T20:03:09.431Z,22.69
2024-04-08T20:05:38.857Z,22.05
2024-04-08T20:08:09.819Z,21.68
2024-04-08T20:10:38.751Z,21.81
2024-04-08T20:13:11.755Z,21.86
2024-04-08T20:15:38.935Z,21.89
2024-04-08T20:18:09.835Z,21.86
2024-04-08T20:20:37.711Z,21.64
2024-04-08T20:23:08.214Z,21.47
2024-04-08T20:25:35.468Z,21.41
2024-04-08T20:28:08.345Z,21.24
2024-04-08T20:30:39.830Z,21.31
2024-04-08T20:33:10.645Z,21.30
2024-04-08T20:35:39.348Z,21.35
2024-04-08T20:38:09.227Z,21.46
2024-04-08T20:40:45.799Z,21.36
2024-04-08T20:43:15.618Z,21.28
2024-04-08T20:45:47.022Z,21.29
2024-04-08T20:48:16.743Z,20.93
2024-04-08T20:50:46.353Z,20.68
2024-04-08T20:53:16.129Z,20.73
2024-04-08T20:55:43.108Z,21.07
2024-04-08T20:58:13.037Z,21.42
2024-04-08T21:00:40.729Z,21.55
2024-04-08T21:03:15.640Z,21.72
2024-04-08T21:05:43.309Z,21.98
2024-04-08T21:08:13.338Z,21.92
2024-04-08T21:10:40.516Z,21.79
2024-04-08T21:13:10.997Z,21.96
2024-04-08T21:15:39.766Z,22.02
2024-04-08T21:18:10.391Z,21.97
2024-04-08T21:20:40.348Z,22.02
2024-04-08T21:23:11.708Z,22.15
2024-04-08T21:25:38.983Z,22.28
2024-04-08T21:28:09.252Z,22.26
2024-04-08T21:30:36.516Z,22.43
2024-04-08T21:33:07.001Z,22.49
2024-04-08T21:35:35.639Z,22.55
2024-04-08T21:38:10.547Z,22.64
2024-04-08T21:40:41.162Z,22.72
2024-04-08T21:43:12.118Z,22.40
2024-04-08T21:45:39.323Z,22.06
2024-04-08T21:48:11.628Z,21.84
2024-04-08T21:50:38.907Z,21.70
2024-04-08T21:53:14.979Z,21.65
2024-04-08T21:55:42.601Z,21.65
2024-04-08T21:58:13.307Z,21.53
2024-04-08T22:00:41.430Z,21.47
2024-04-08T22:03:11.309Z,21.48
2024-04-08T22:05:41.086Z,21.44
2024-04-08T22:08:14.808Z,21.36
2024-04-08T22:10:42.961Z,21.29
2024-04-08T22:13:13.481Z,21.32
2024-04-08T22:15:41.241Z,21.32
2024-04-08T22:18:12.122Z,21.40
2024-04-08T22:20:39.618Z,21.53
2024-04-08T22:23:11.310Z,21.64
2024-04-08T22:25:41.691Z,21.72
2024-04-08T22:28:11.422Z,21.73
2024-04-08T22:30:39.729Z,21.82
2024-04-08T22:33:10.241Z,21.88
2024-04-08T22:35:37.536Z,21.91
2024-04-08T22:38:11.355Z,21.99
2024-04-08T22:40:42.158Z,21.93
2024-04-08T22:43:11.996Z,22.13
2024-04-08T22:45:39.871Z,22.26
2024-04-08T22:48:10.842Z,22.44
2024-04-08T22:50:39.148Z,22.42
2024-04-08T22:53:09.264Z,22.01
2024-04-08T22:55:36.293Z,21.69
2024-04-08T22:58:10.756Z,21.67
2024-04-08T23:00:37.998Z,21.87
2024-04-08T23:03:08.922Z,21.86
2024-04-08T23:05:36.426Z,21.60
2024-04-08T23:08:07.635Z,21.64
2024-04-08T23:10:34.879Z,21.59
2024-04-08T23:13:04.820Z,21.64
2024-04-08T23:15:37.022Z,21.73
2024-04-08T23:18:09.273Z,21.79
2024-04-08T23:20:36.639Z,21.78
2024-04-08T23:23:07.336Z,21.52
2024-04-08T23:25:36.886Z,21.58
2024-04-08T23:28:07.450Z,21.61
2024-04-08T23:30:37.801Z,21.43
2024-04-08T23:33:08.116Z,20.73
2024-04-08T23:35:35.456Z,20.58
2024-04-08T23:38:05.923Z,20.63
2024-04-08T23:40:33.388Z,20.81
2024-04-08T23:43:05.176Z,20.98
2024-04-08T23:45:32.696Z,21.02
2024-04-08T23:48:05.501Z,20.89
2024-04-08T23:50:34.805Z,20.88
2024-04-08T23:53:05.160Z,20.82
2024-04-08T23:55:32.177Z,20.63
2024-04-08T23:58:02.292Z,19.53
